Dobrodošli na spletni strani vremenske postaje Senovo. Vse informacije so informativnega značaja, saj vremenska postaja ni del državne mreže meteoroloških postaj. AKTUALNIH OBVESTIL NI.


Sneg/Led Od: 21-02-2018 00:00 Do: 23-02-2018 23:59 Opozorilo za: Sneg/Led Stopnja: Rumena info button
Veter Od: 21-02-2018 00:00 Do: 22-02-2018 23:59 Opozorilo za: Veter Stopnja: Rumena info button

Pogled proti Armezu več informacij Pogled proti Armezu


Lisca več informacij Lisca


Radar strel več informacij blitzortung!


opozorilo za sneg/led več informacij rain snow radar


Obiščite še:

Template documentation
and downloads

And another site



Weather Underground, zgodovina - Tekstovno

Dnevni povzetek za Februar 6, 2018 Enote:  Angleško    Metrično   Obe
« Predhodni Dan
Naslednji Dan »
Dnevni Tedenski Mesečni Letni Po meri
  Višja: Nižja: Povprečje:
Temperatura: TemperatureC °F -0.7 °F 0.2 °F
Točka rosišča: DewpointC °F -2.7 °F -1.5 °F
Vlažnost: Humidity % 85 % 88 %
Hitrost vetra: WindSpeedKMH mph 0.0 mph 1.9 mph
Sunki vetra: WindSpeedGustKMH mph - -
Veter:- - SSE
Zračni tlak: PressurehPa in 1013.1 in -
Padavine: 0.0 in    
Historical Graphs
 
 
Tabelarni podarki za Februar 6, 2018
Čas Temperatura Točka rosišča Zračni tlak Veter Hitrost vetra Sunki vetra Vlažnost Intenziteta padavin (urna)
TemperatureC °F DewpointC °F PressurehPa in Calm     Humidity % HourlyPrecipMM in
00:00 0.1 °F -1.3 °F 1020.9 in Calm     90 % 0.0 in
00:05 0.1 °F -1.3 °F 1020.9 in Calm   1.4 mph 90 % 0.0 in
00:10 0.1 °F -1.3 °F 1020.9 in NE 0.5 mph 3.2 mph 90 % 0.0 in
00:15 0.1 °F -1.3 °F 1020.9 in NE 0.5 mph 3.2 mph 90 % 0.0 in
00:20 0.1 °F -1.3 °F 1020.9 in North 0.2 mph   90 % 0.0 in
00:25 0.2 °F -1.2 °F 1020.9 in SE 0.2 mph 2.1 mph 90 % 0.0 in
00:30 0.2 °F -1.2 °F 1020.9 in ESE 0.3 mph 3.5 mph 90 % 0.0 in
00:35 0.2 °F -1.2 °F 1020.9 in ESE 0.2 mph 3.5 mph 90 % 0.0 in
00:40 0.2 °F -1.2 °F 1019.9 in North 0.2 mph   90 % 0.0 in
00:45 0.2 °F -1.2 °F 1019.9 in Calm     90 % 0.0 in
00:50 0.2 °F -1.2 °F 1019.9 in Calm     90 % 0.0 in
00:55 0.2 °F -1.2 °F 1019.9 in SSW 0.5 mph 3.5 mph 90 % 0.0 in
01:00 0.2 °F -1.2 °F 1019.9 in SSW 0.8 mph 3.5 mph 90 % 0.0 in
01:05 0.2 °F -1.2 °F 1019.9 in SW 0.5 mph 2.6 mph 90 % 0.0 in
01:10 0.2 °F -1.2 °F 1019.9 in SSW 0.2 mph 2.1 mph 90 % 0.0 in
01:15 0.2 °F -1.2 °F 1019.9 in Calm     90 % 0.0 in
01:20 0.2 °F -1.2 °F 1019.9 in Calm     90 % 0.0 in
01:25 0.2 °F -1.2 °F 1018.8 in Calm     90 % 0.0 in
01:30 0.2 °F -1.2 °F 1018.8 in Calm     90 % 0.0 in
01:35 0.2 °F -1.2 °F 1018.8 in Calm     90 % 0.0 in
01:40 0.2 °F -1.2 °F 1018.8 in Calm     90 % 0.0 in
01:45 0.2 °F -1.2 °F 1018.8 in Calm     90 % 0.0 in
01:50 0.2 °F -1.2 °F 1018.8 in Calm     90 % 0.0 in
01:55 0.2 °F -1.2 °F 1018.8 in Calm     90 % 0.0 in
02:00 0.2 °F -1.2 °F 1018.8 in Calm     90 % 0.0 in
02:05 0.2 °F -1.2 °F 1018.8 in Calm     90 % 0.0 in
02:10 0.2 °F -1.2 °F 1018.2 in Calm     90 % 0.0 in
02:15 0.2 °F -1.2 °F 1018.2 in Calm     90 % 0.0 in
02:20 0.2 °F -1.2 °F 1018.2 in South 0.2 mph 3.2 mph 90 % 0.0 in
02:25 0.2 °F -1.2 °F 1018.2 in SSE 1.3 mph 4.0 mph 90 % 0.0 in
02:30 0.2 °F -1.2 °F 1018.2 in SSE 1.3 mph 4.0 mph 90 % 0.0 in
02:35 0.2 °F -1.2 °F 1018.2 in South 0.3 mph 4.3 mph 90 % 0.0 in
02:40 0.2 °F -1.2 °F 1018.8 in South 1.8 mph 4.7 mph 90 % 0.0 in
02:45 0.1 °F -1.3 °F 1018.8 in South 1.9 mph 4.7 mph 90 % 0.0 in
02:50 0.1 °F -1.3 °F 1018.8 in South 1.1 mph 4.0 mph 90 % 0.0 in
02:55 0.1 °F -1.3 °F 1019.9 in South 1.3 mph 4.0 mph 90 % 0.0 in
03:00 0.1 °F -1.3 °F 1019.9 in SSW 1.4 mph 3.2 mph 90 % 0.0 in
03:05 0.1 °F -1.3 °F 1019.9 in SSW 1.4 mph 3.5 mph 90 % 0.0 in
03:10 0.1 °F -1.3 °F 1018.8 in SSW 1.6 mph 3.5 mph 90 % 0.0 in
03:15 0.1 °F -1.3 °F 1018.8 in SW 1.3 mph 3.5 mph 90 % 0.0 in
03:20 0.1 °F -1.3 °F 1018.8 in SW 1.3 mph 3.5 mph 90 % 0.0 in
03:25 0.1 °F -1.3 °F 1018.8 in SW 1.6 mph 3.5 mph 90 % 0.0 in
03:30 0.1 °F -1.3 °F 1018.8 in SSW 0.8 mph 3.2 mph 90 % 0.0 in
03:35 0.1 °F -1.3 °F 1018.8 in SSW 0.5 mph 2.6 mph 90 % 0.0 in
03:40 0.1 °F -1.3 °F 1018.8 in SSW 0.3 mph 2.6 mph 90 % 0.0 in
03:45 0.1 °F -1.3 °F 1018.8 in Calm     90 % 0.0 in
03:50 0.1 °F -1.3 °F 1018.8 in SW 0.5 mph 2.6 mph 90 % 0.0 in
03:55 0.1 °F -1.3 °F 1018.8 in SW 1.1 mph 4.0 mph 90 % 0.0 in
04:00 0.1 °F -1.3 °F 1018.8 in SW 1.8 mph 4.0 mph 90 % 0.0 in
04:05 0.0 °F -1.4 °F 1018.8 in WSW 1.9 mph 4.0 mph 90 % 0.0 in
04:10 0.0 °F -1.4 °F 1018.2 in WSW 1.8 mph 4.0 mph 90 % 0.0 in
04:15 0.0 °F -1.4 °F 1018.2 in WSW 1.6 mph 3.2 mph 90 % 0.0 in
04:20 0.0 °F -1.4 °F 1018.2 in WSW 0.5 mph 3.2 mph 90 % 0.0 in
04:25 0.0 °F -1.4 °F 1018.8 in WSW 0.6 mph 4.3 mph 90 % 0.0 in
04:30 0.0 °F -1.4 °F 1018.8 in WSW 2.4 mph 4.7 mph 90 % 0.0 in
04:35 0.0 °F -1.4 °F 1018.8 in WSW 2.4 mph 4.7 mph 90 % 0.0 in
04:40 0.0 °F -1.4 °F 1018.8 in WSW 0.5 mph 2.6 mph 90 % 0.0 in
04:45 0.0 °F -1.4 °F 1018.8 in Calm     90 % 0.0 in
04:50 0.0 °F -1.4 °F 1018.8 in Calm     90 % 0.0 in
04:55 0.0 °F -1.4 °F 1018.2 in Calm     90 % 0.0 in
05:00 0.0 °F -1.4 °F 1018.2 in Calm     90 % 0.0 in
05:05 0.0 °F -1.4 °F 1018.2 in Calm     90 % 0.0 in
05:06 0.0 °F -1.4 °F 1018.2 in Calm     90 % 0.0 in
05:11 0.0 °F -1.4 °F 1018.2 in Calm     90 % 0.0 in
05:17 0.0 °F -1.4 °F 1018.2 in Calm     90 % 0.0 in
05:23 0.0 °F -1.4 °F 1018.2 in Calm     90 % 0.0 in
05:28 0.0 °F -1.4 °F 1018.2 in Calm     90 % 0.0 in
05:33 0.0 °F -1.4 °F 1018.2 in Calm     90 % 0.0 in
05:38 0.0 °F -1.4 °F 1018.2 in Calm     90 % 0.0 in
05:43 0.0 °F -1.4 °F 1018.2 in Calm     90 % 0.0 in
05:48 0.0 °F -1.4 °F 1018.2 in Calm     90 % 0.0 in
05:53 0.0 °F -1.4 °F 1018.2 in Calm     90 % 0.0 in
05:58 0.0 °F -1.4 °F 1018.2 in Calm     90 % 0.0 in
06:03 0.1 °F -1.3 °F 1018.2 in Calm   1.8 mph 90 % 0.0 in
06:08 0.1 °F -1.3 °F 1018.2 in SSE 1.3 mph 4.0 mph 90 % 0.0 in
06:13 0.1 °F -1.3 °F 1018.2 in SSE 1.4 mph 4.0 mph 90 % 0.0 in
06:18 0.1 °F -1.3 °F 1018.2 in SSE 0.3 mph 3.2 mph 90 % 0.0 in
06:23 0.1 °F -1.3 °F 1018.2 in Calm   5.0 mph 90 % 0.0 in
06:28 0.1 °F -1.3 °F 1018.2 in SSE 1.4 mph 5.8 mph 90 % 0.0 in
06:33 0.1 °F -1.3 °F 1018.2 in SSE 2.9 mph 5.8 mph 90 % 0.0 in
06:38 0.1 °F -1.3 °F 1018.2 in SSE 2.3 mph 5.5 mph 90 % 0.0 in
06:44 0.1 °F -1.3 °F 1018.2 in SSE 1.4 mph 5.0 mph 90 % 0.0 in
06:49 0.1 °F -1.3 °F 1018.2 in South 2.4 mph 7.6 mph 90 % 0.0 in
06:54 0.0 °F -1.4 °F 1018.2 in South 2.9 mph 7.6 mph 90 % 0.0 in
06:59 0.0 °F -1.4 °F 1018.2 in SSE 1.9 mph 5.5 mph 90 % 0.0 in
07:04 0.0 °F -1.4 °F 1018.2 in SSE 2.3 mph 4.7 mph 90 % 0.0 in
07:09 0.0 °F -1.4 °F 1018.2 in SSE 2.6 mph 6.4 mph 90 % 0.0 in
07:14 0.0 °F -1.4 °F 1018.2 in South 1.6 mph 6.4 mph 90 % 0.0 in
07:19 0.0 °F -1.4 °F 1018.2 in SSW 1.8 mph 4.3 mph 90 % 0.0 in
07:24 0.0 °F -1.4 °F 1018.2 in SSW 1.6 mph 3.5 mph 90 % 0.0 in
07:29 -0.1 °F -1.6 °F 1018.2 in SE 1.0 mph 4.0 mph 90 % 0.0 in
07:34 -0.1 °F -1.6 °F 1018.2 in SSE 1.6 mph 4.0 mph 90 % 0.0 in
07:39 -0.1 °F -1.6 °F 1018.2 in South 2.1 mph 5.8 mph 90 % 0.0 in
07:44 -0.1 °F -1.6 °F 1018.8 in South 2.3 mph 5.8 mph 90 % 0.0 in
07:49 -0.1 °F -1.6 °F 1018.8 in South 2.9 mph 6.4 mph 90 % 0.0 in
07:54 -0.1 °F -1.6 °F 1018.8 in SSE 2.9 mph 6.4 mph 90 % 0.0 in
07:59 -0.1 °F -1.6 °F 1018.2 in SE 2.1 mph 4.7 mph 90 % 0.0 in
08:04 -0.1 °F -1.6 °F 1018.2 in SE 2.6 mph 5.0 mph 90 % 0.0 in
08:09 -0.1 °F -1.6 °F 1018.2 in SE 2.7 mph 5.5 mph 90 % 0.0 in
08:14 -0.1 °F -1.6 °F 1018.8 in SSE 2.6 mph 5.5 mph 90 % 0.0 in
08:19 -0.1 °F -1.6 °F 1018.8 in SSE 1.8 mph 5.0 mph 90 % 0.0 in
08:24 -0.1 °F -1.6 °F 1018.8 in SE 2.3 mph 5.8 mph 90 % 0.0 in
08:29 -0.1 °F -1.6 °F 1018.8 in ESE 4.0 mph 6.1 mph 90 % 0.0 in
08:34 -0.1 °F -1.6 °F 1018.8 in SE 3.2 mph 6.1 mph 90 % 0.0 in
08:39 -0.1 °F -1.6 °F 1018.8 in SSE 2.4 mph 6.1 mph 90 % 0.0 in
08:44 0.0 °F -1.4 °F 1018.8 in SE 2.7 mph 6.1 mph 90 % 0.0 in
08:49 0.0 °F -1.4 °F 1018.8 in SE 3.7 mph 6.9 mph 90 % 0.0 in
08:54 0.0 °F -1.4 °F 1018.8 in SE 4.2 mph 6.9 mph 90 % 0.0 in
08:59 0.0 °F -1.4 °F 1018.2 in SE 4.0 mph 6.9 mph 90 % 0.0 in
09:04 0.0 °F -1.4 °F 1018.2 in SE 3.2 mph 6.4 mph 90 % 0.0 in
09:09 0.1 °F -1.3 °F 1018.2 in SSE 1.3 mph 5.0 mph 90 % 0.0 in
09:14 0.1 °F -1.3 °F 1018.2 in South 0.8 mph 4.0 mph 90 % 0.0 in
09:19 0.1 °F -1.3 °F 1018.2 in SSE 1.6 mph 4.3 mph 90 % 0.0 in
09:24 0.1 °F -1.3 °F 1018.2 in SE 1.0 mph 4.3 mph 90 % 0.0 in
09:29 0.1 °F -1.3 °F 1018.2 in SSE 0.3 mph 3.5 mph 90 % 0.0 in
09:34 0.1 °F -1.3 °F 1018.2 in SSE 0.5 mph 3.5 mph 90 % 0.0 in
09:39 0.1 °F -1.3 °F 1018.2 in SSE 2.1 mph 6.1 mph 90 % 0.0 in
09:44 0.1 °F -1.3 °F 1018.2 in South 3.2 mph 6.1 mph 90 % 0.0 in
09:49 0.2 °F -1.1 °F 1018.2 in SE 3.2 mph 6.1 mph 91 % 0.0 in
09:54 0.2 °F -1.1 °F 1018.2 in SE 3.7 mph 6.1 mph 91 % 0.0 in
09:59 0.3 °F -1.0 °F 1018.2 in SE 3.4 mph 5.8 mph 91 % 0.0 in
10:04 0.3 °F -1.0 °F 1018.2 in SE 1.6 mph 4.7 mph 91 % 0.0 in
10:09 0.4 °F -0.9 °F 1018.2 in SE 2.3 mph 5.0 mph 91 % 0.0 in
10:14 0.4 °F -0.9 °F 1018.2 in SE 3.4 mph 5.5 mph 91 % 0.0 in
10:20 0.5 °F -0.8 °F 1018.2 in SSE 3.9 mph 6.4 mph 91 % 0.0 in
10:25 0.5 °F -0.8 °F 1018.2 in South 4.7 mph 6.4 mph 91 % 0.0 in
10:30 0.5 °F -0.8 °F 1018.2 in South 3.9 mph 6.4 mph 91 % 0.0 in
10:35 0.6 °F -0.7 °F 1018.2 in SSE 2.4 mph 5.8 mph 91 % 0.0 in
10:40 0.6 °F -0.7 °F 1018.2 in SSW 2.6 mph 5.8 mph 91 % 0.0 in
10:45 0.6 °F -0.7 °F 1018.2 in South 3.2 mph 5.8 mph 91 % 0.0 in
10:50 0.6 °F -0.7 °F 1018.2 in SE 1.9 mph 5.5 mph 91 % 0.0 in
10:55 0.6 °F -0.7 °F 1018.2 in SE 1.4 mph 5.8 mph 91 % 0.0 in
11:00 0.6 °F -0.7 °F 1018.2 in SE 2.9 mph 5.8 mph 91 % 0.0 in
11:05 0.7 °F -0.6 °F 1018.2 in SE 2.4 mph 5.5 mph 91 % 0.0 in
11:10 0.7 °F -0.6 °F 1016.8 in SE 0.6 mph 4.7 mph 91 % 0.0 in
11:15 0.7 °F -0.6 °F 1016.8 in South 0.6 mph 4.0 mph 91 % 0.0 in
11:20 0.8 °F -0.5 °F 1016.8 in SW 2.1 mph 6.9 mph 91 % 0.0 in
11:25 0.7 °F -0.6 °F 1016.8 in SW 3.5 mph 6.9 mph 91 % 0.0 in
11:30 0.8 °F -0.5 °F 1016.8 in SSW 3.9 mph 5.5 mph 91 % 0.0 in
11:35 0.9 °F -0.4 °F 1016.8 in South 3.5 mph 5.0 mph 91 % 0.0 in
11:40 0.9 °F -0.4 °F 1016.8 in South 2.1 mph 5.0 mph 91 % 0.0 in
11:45 0.8 °F -0.5 °F 1016.8 in SSE 1.3 mph 4.0 mph 91 % 0.0 in
11:50 0.8 °F -0.5 °F 1016.8 in SW 1.6 mph 7.6 mph 91 % 0.0 in
11:55 0.7 °F -0.8 °F 1016.8 in WSW 3.4 mph 7.6 mph 90 % 0.0 in
12:00 0.7 °F -0.8 °F 1016.8 in WSW 4.7 mph 6.4 mph 90 % 0.0 in
12:05 0.7 °F -0.8 °F 1016.8 in WSW 3.2 mph 5.8 mph 90 % 0.0 in
12:10 0.7 °F -0.8 °F 1016.8 in WSW 3.1 mph 5.8 mph 90 % 0.0 in
12:15 0.7 °F -0.8 °F 1016.8 in SW 2.9 mph 5.8 mph 90 % 0.0 in
12:20 0.7 °F -0.8 °F 1016.8 in SW 2.1 mph 4.0 mph 90 % 0.0 in
12:25 0.7 °F -0.8 °F 1016.8 in SSW 1.0 mph 4.7 mph 90 % 0.0 in
12:30 0.9 °F -0.6 °F 1016.8 in South 1.4 mph 5.5 mph 90 % 0.0 in
12:35 0.9 °F -0.6 °F 1016.8 in South 1.9 mph 5.5 mph 90 % 0.0 in
12:40 0.9 °F -0.6 °F 1016.8 in SW 0.3 mph 4.0 mph 90 % 0.0 in
12:45 1.0 °F -0.6 °F 1016.8 in SSW 0.2 mph 3.2 mph 89 % 0.0 in
12:50 1.0 °F -0.6 °F 1016.8 in SSW 0.2 mph 3.2 mph 89 % 0.0 in
12:55 1.0 °F -0.6 °F 1016.8 in South 1.4 mph 6.4 mph 89 % 0.0 in
13:00 1.0 °F -0.6 °F 1016.8 in SSW 1.9 mph 6.4 mph 89 % 0.0 in
13:05 1.0 °F -0.6 °F 1016.8 in SSW 1.0 mph 3.5 mph 89 % 0.0 in
13:10 1.0 °F -0.6 °F 1016.8 in SSW 1.0 mph 3.5 mph 89 % 0.0 in
13:15 1.0 °F -0.6 °F 1016.8 in SW 0.6 mph 3.5 mph 89 % 0.0 in
13:20 1.0 °F -0.6 °F 1016.8 in SW 1.4 mph 4.0 mph 89 % 0.0 in
13:25 1.0 °F -0.6 °F 1016.8 in SW 2.6 mph 4.3 mph 89 % 0.0 in
13:30 1.0 °F -0.6 °F 1016.8 in WSW 3.2 mph 5.5 mph 89 % 0.0 in
13:35 1.0 °F -0.6 °F 1016.8 in WSW 3.7 mph 5.5 mph 89 % 0.0 in
13:40 1.0 °F -0.6 °F 1016.1 in WSW 3.4 mph 5.5 mph 89 % 0.0 in
13:45 1.0 °F -0.6 °F 1016.1 in West 2.9 mph 5.0 mph 89 % 0.0 in
13:50 1.0 °F -0.6 °F 1016.1 in West 2.7 mph 5.0 mph 89 % 0.0 in
13:55 1.0 °F -0.8 °F 1016.1 in WNW 1.4 mph 4.3 mph 88 % 0.0 in
14:00 1.0 °F -0.8 °F 1016.1 in Calm   2.6 mph 88 % 0.0 in
14:05 1.0 °F -0.8 °F 1016.1 in NNW 0.3 mph 4.3 mph 88 % 0.0 in
14:10 1.0 °F -0.8 °F 1016.1 in NNW 1.4 mph 4.3 mph 88 % 0.0 in
14:15 1.1 °F -0.7 °F 1016.1 in NE 2.6 mph 5.0 mph 88 % 0.0 in
14:20 1.1 °F -0.7 °F 1016.1 in ESE 3.2 mph 5.0 mph 88 % 0.0 in
14:25 1.1 °F -0.7 °F 1016.1 in East 2.1 mph 4.7 mph 88 % 0.0 in
14:30 1.1 °F -0.7 °F 1016.1 in East 1.1 mph 4.0 mph 88 % 0.0 in
14:35 1.1 °F -0.7 °F 1016.1 in East 0.6 mph 4.0 mph 88 % 0.0 in
14:40 1.1 °F -0.7 °F 1015.1 in ENE 1.0 mph 5.0 mph 88 % 0.0 in
14:45 1.0 °F -0.8 °F 1015.1 in ENE 2.6 mph 5.0 mph 88 % 0.0 in
14:50 1.0 °F -0.9 °F 1015.1 in East 3.2 mph 7.6 mph 87 % 0.0 in
14:55 1.0 °F -0.9 °F 1015.1 in SE 4.2 mph 9.7 mph 87 % 0.0 in
15:00 1.0 °F -0.9 °F 1015.1 in SE 5.3 mph 9.7 mph 87 % 0.0 in
15:05 1.0 °F -0.9 °F 1015.1 in SE 5.3 mph 9.3 mph 87 % 0.0 in
15:10 1.0 °F -0.9 °F 1015.1 in SSE 4.3 mph 6.4 mph 87 % 0.0 in
15:15 1.0 °F -0.9 °F 1015.1 in SSE 2.7 mph 6.4 mph 87 % 0.0 in
15:20 1.0 °F -0.9 °F 1015.1 in SE 2.7 mph 6.4 mph 87 % 0.0 in
15:25 1.0 °F -0.9 °F 1015.1 in SE 3.7 mph 6.4 mph 87 % 0.0 in
15:30 0.9 °F -1.0 °F 1015.1 in SE 3.1 mph 5.0 mph 87 % 0.0 in
15:35 0.9 °F -1.0 °F 1015.1 in SSE 2.6 mph 5.0 mph 87 % 0.0 in
15:40 0.9 °F -1.0 °F 1015.1 in SSE 1.9 mph 4.0 mph 87 % 0.0 in
15:45 0.9 °F -1.0 °F 1015.1 in SSE 1.6 mph 4.7 mph 87 % 0.0 in
15:50 0.8 °F -1.1 °F 1015.1 in South 2.4 mph 6.9 mph 87 % 0.0 in
15:55 0.8 °F -1.3 °F 1015.1 in South 3.2 mph 6.9 mph 86 % 0.0 in
16:00 0.8 °F -1.3 °F 1015.1 in South 3.4 mph 5.0 mph 86 % 0.0 in
16:05 0.8 °F -1.3 °F 1015.1 in SSE 3.4 mph 9.7 mph 86 % 0.0 in
16:10 0.8 °F -1.3 °F 1015.1 in SE 4.7 mph 9.7 mph 86 % 0.0 in
16:15 0.7 °F -1.4 °F 1015.1 in SE 6.8 mph 10.5 mph 86 % 0.0 in
16:20 0.7 °F -1.4 °F 1015.1 in SE 6.1 mph 10.5 mph 86 % 0.0 in
16:25 0.6 °F -1.5 °F 1015.1 in SE 5.5 mph 9.7 mph 86 % 0.0 in
16:30 0.6 °F -1.5 °F 1015.1 in SE 6.3 mph 9.7 mph 86 % 0.0 in
16:35 0.6 °F -1.5 °F 1015.1 in ESE 6.4 mph 10.5 mph 86 % 0.0 in
16:40 0.5 °F -1.6 °F 1015.1 in SE 5.8 mph 10.5 mph 86 % 0.0 in
16:45 0.5 °F -1.6 °F 1015.1 in SE 5.1 mph 9.0 mph 86 % 0.0 in
16:50 0.4 °F -1.7 °F 1015.1 in SSE 4.3 mph 6.9 mph 86 % 0.0 in
16:55 0.4 °F -1.8 °F 1015.1 in SSE 2.9 mph 6.9 mph 85 % 0.0 in
17:01 0.4 °F -1.8 °F 1015.1 in SE 2.9 mph 6.4 mph 85 % 0.0 in
17:06 0.3 °F -1.9 °F 1015.1 in SE 3.1 mph 6.4 mph 85 % 0.0 in
17:11 0.3 °F -1.9 °F 1015.1 in SE 2.9 mph 6.4 mph 85 % 0.0 in
17:16 0.3 °F -1.9 °F 1015.1 in SSE 3.4 mph 6.1 mph 85 % 0.0 in
17:21 0.3 °F -1.9 °F 1015.1 in SSE 3.5 mph 6.1 mph 85 % 0.0 in
17:26 0.3 °F -1.9 °F 1015.1 in SSE 4.0 mph 5.8 mph 85 % 0.0 in
17:31 0.2 °F -2.0 °F 1015.1 in SE 4.5 mph 7.2 mph 85 % 0.0 in
17:36 0.2 °F -2.0 °F 1015.1 in SSE 3.7 mph 7.2 mph 85 % 0.0 in
17:41 0.2 °F -2.0 °F 1014.1 in SSE 3.2 mph 6.4 mph 85 % 0.0 in
17:46 0.2 °F -2.0 °F 1014.1 in SSE 3.7 mph 6.4 mph 85 % 0.0 in
17:51 0.1 °F -2.1 °F 1014.1 in SSE 3.2 mph 6.4 mph 85 % 0.0 in
17:56 0.1 °F -2.1 °F 1014.1 in ESE 2.6 mph 4.3 mph 85 % 0.0 in
18:01 0.1 °F -2.1 °F 1014.1 in ESE 2.6 mph 5.0 mph 85 % 0.0 in
18:06 0.1 °F -2.1 °F 1014.1 in ESE 2.7 mph 5.0 mph 85 % 0.0 in
18:11 0.1 °F -2.1 °F 1015.1 in ESE 2.4 mph 4.0 mph 85 % 0.0 in
18:16 0.1 °F -2.1 °F 1015.1 in SE 1.8 mph 4.0 mph 85 % 0.0 in
18:21 0.1 °F -2.1 °F 1015.1 in SSE 1.9 mph 4.0 mph 85 % 0.0 in
18:26 0.1 °F -2.1 °F 1015.1 in SSE 2.1 mph 6.4 mph 85 % 0.0 in
18:31 0.1 °F -2.1 °F 1015.1 in SSE 3.1 mph 6.4 mph 85 % 0.0 in
18:36 0.1 °F -2.1 °F 1015.1 in SE 3.5 mph 6.4 mph 85 % 0.0 in
18:37 0.1 °F -2.1 °F 1015.1 in SE 3.2 mph 4.3 mph 85 % 0.0 in
18:42 0.1 °F -2.1 °F 1015.1 in SSE 1.9 mph 4.3 mph 85 % 0.0 in
18:47 0.1 °F -2.1 °F 1015.1 in SSE 2.7 mph 6.9 mph 85 % 0.0 in
18:52 0.0 °F -2.2 °F 1015.1 in SE 4.8 mph 7.6 mph 85 % 0.0 in
18:57 0.0 °F -2.2 °F 1015.1 in SE 4.3 mph 7.6 mph 85 % 0.0 in
19:02 0.0 °F -2.2 °F 1015.1 in ESE 4.0 mph 6.9 mph 85 % 0.0 in
19:07 0.0 °F -2.2 °F 1015.1 in ESE 5.1 mph 7.9 mph 85 % 0.0 in
19:12 -0.1 °F -2.3 °F 1015.1 in ESE 6.4 mph 10.8 mph 85 % 0.0 in
19:17 -0.1 °F -2.3 °F 1015.1 in ESE 6.0 mph 10.8 mph 85 % 0.0 in
19:22 -0.1 °F -2.3 °F 1015.1 in ESE 4.0 mph 6.4 mph 85 % 0.0 in
19:27 -0.2 °F -2.4 °F 1015.1 in ESE 3.2 mph 5.0 mph 85 % 0.0 in
19:32 -0.2 °F -2.4 °F 1015.1 in ESE 2.7 mph 5.0 mph 85 % 0.0 in
19:37 -0.3 °F -2.5 °F 1015.1 in ESE 2.3 mph 4.3 mph 85 % 0.0 in
19:42 -0.3 °F -2.5 °F 1015.1 in East 2.3 mph 4.0 mph 85 % 0.0 in
19:47 -0.4 °F -2.6 °F 1015.1 in East 1.6 mph 4.0 mph 85 % 0.0 in
19:52 -0.4 °F -2.6 °F 1015.1 in ESE 0.8 mph 4.0 mph 85 % 0.0 in
19:57 -0.5 °F -2.7 °F 1015.1 in East 1.1 mph 4.0 mph 85 % 0.3 in
20:02 -0.5 °F -2.7 °F 1015.1 in ENE 1.0 mph 2.6 mph 85 % 0.5 in
20:07 -0.5 °F -2.7 °F 1015.1 in East 0.3 mph 3.2 mph 85 % 0.5 in
20:12 -0.5 °F -2.7 °F 1015.1 in ESE 0.8 mph 5.0 mph 85 % 0.5 in
20:17 -0.5 °F -2.7 °F 1015.1 in East 2.1 mph 5.0 mph 85 % 0.5 in
20:22 -0.5 °F -2.6 °F 1015.1 in East 1.3 mph 4.3 mph 86 % 0.5 in
20:27 -0.5 °F -2.6 °F 1015.1 in Calm   4.0 mph 86 % 0.5 in
20:32 -0.5 °F -2.6 °F 1015.1 in SE 1.0 mph 4.0 mph 86 % 0.5 in
20:37 -0.5 °F -2.6 °F 1015.1 in SE 2.1 mph 4.0 mph 86 % 0.5 in
20:42 -0.5 °F -2.6 °F 1015.1 in ESE 2.4 mph 4.0 mph 86 % 0.5 in
20:47 -0.5 °F -2.6 °F 1015.1 in ESE 1.6 mph 4.0 mph 86 % 0.8 in
20:52 -0.5 °F -2.6 °F 1015.1 in ESE 0.6 mph 3.5 mph 86 % 0.8 in
20:57 -0.5 °F -2.6 °F 1015.1 in SE 0.8 mph 4.7 mph 86 % 0.8 in
21:02 -0.5 °F -2.6 °F 1015.1 in SE 1.4 mph 4.7 mph 86 % 0.3 in
21:08 -0.5 °F -2.6 °F 1015.1 in SE 1.3 mph 4.0 mph 86 % 0.3 in
21:13 -0.5 °F -2.4 °F 1015.1 in SE 0.3 mph 3.2 mph 87 % 0.3 in
21:18 -0.5 °F -2.4 °F 1015.1 in Calm     87 % 0.3 in
21:23 -0.5 °F -2.4 °F 1015.1 in Calm     87 % 0.3 in
21:28 -0.5 °F -2.4 °F 1014.1 in WSW 0.5 mph 2.1 mph 87 % 0.3 in
21:33 -0.5 °F -2.4 °F 1014.1 in West 1.0 mph 3.5 mph 87 % 0.3 in
21:38 -0.5 °F -2.4 °F 1014.1 in SW 1.3 mph 3.5 mph 87 % 0.3 in
21:43 -0.5 °F -2.4 °F 1014.1 in SW 2.3 mph 5.5 mph 87 % 0.3 in
21:48 -0.5 °F -2.4 °F 1014.1 in WSW 4.3 mph 9.0 mph 87 % 0.0 in
21:53 -0.5 °F -2.4 °F 1014.1 in WSW 6.0 mph 9.3 mph 87 % 0.0 in
21:58 -0.5 °F -2.4 °F 1014.1 in WSW 4.8 mph 9.3 mph 87 % 0.0 in
22:03 -0.5 °F -2.4 °F 1014.1 in SW 2.1 mph 6.1 mph 87 % 0.0 in
22:08 -0.6 °F -2.5 °F 1014.1 in NW 1.3 mph 4.0 mph 87 % 0.0 in
22:13 -0.5 °F -2.4 °F 1014.1 in NW 1.3 mph 4.0 mph 87 % 0.0 in
22:18 -0.5 °F -2.2 °F 1014.1 in SW 1.4 mph 5.5 mph 88 % 0.0 in
22:23 -0.5 °F -2.2 °F 1014.1 in South 2.4 mph 6.1 mph 88 % 0.0 in
22:28 -0.5 °F -2.2 °F 1014.1 in SSE 3.4 mph 6.1 mph 88 % 0.0 in
22:33 -0.6 °F -2.3 °F 1014.1 in South 3.4 mph 5.8 mph 88 % 0.0 in
22:38 -0.6 °F -2.3 °F 1014.1 in South 1.9 mph 5.8 mph 88 % 0.0 in
22:43 -0.6 °F -2.3 °F 1014.1 in South 0.3 mph 4.3 mph 88 % 0.0 in
22:48 -0.6 °F -2.3 °F 1014.1 in South 0.8 mph 5.0 mph 88 % 0.0 in
22:54 -0.6 °F -2.3 °F 1014.1 in South 0.8 mph 5.0 mph 88 % 0.0 in
22:59 -0.6 °F -2.3 °F 1014.1 in SSW 0.2 mph 1.4 mph 88 % 0.0 in
23:04 -0.6 °F -2.3 °F 1014.1 in Calm     88 % 0.0 in
23:09 -0.7 °F -2.4 °F 1014.1 in Calm     88 % 0.3 in
23:14 -0.7 °F -2.4 °F 1014.1 in Calm     88 % 0.3 in
23:19 -0.7 °F -2.4 °F 1014.1 in Calm     88 % 0.3 in
23:24 -0.7 °F -2.4 °F 1014.1 in Calm   2.6 mph 88 % 0.3 in
23:29 -0.7 °F -2.4 °F 1013.1 in ESE 0.6 mph 5.5 mph 88 % 0.5 in
23:34 -0.6 °F -2.2 °F 1013.1 in East 1.3 mph 5.5 mph 89 % 0.5 in
23:39 -0.6 °F -2.2 °F 1013.1 in East 1.6 mph 6.4 mph 89 % 0.5 in
23:44 -0.6 °F -2.2 °F 1013.1 in ESE 1.8 mph 6.4 mph 89 % 0.5 in
23:49 -0.6 °F -2.2 °F 1013.1 in ESE 2.7 mph 5.8 mph 89 % 0.8 in
23:54 -0.6 °F -2.2 °F 1013.1 in ESE 3.1 mph 5.8 mph 89 % 0.8 in
23:59 -0.6 °F -2.2 °F 1013.1 in ESE 3.1 mph 6.9 mph 89 % 0.8 in
Vremenska postaja Senovo
Podatki zbrani iz Weather Underground - 3 mb

Script developed by  Jim McMurry - jmcmurry@mwt.net Adapted for the template by  Wim van der Kuil - Leuven-Template.eu

Vremenski podatki so objavljeni na:

European Weather Network

WeatherCloud

Weather Underground

AWEKAS

HAMweather, WeatherForYou, PWS Weather

MapView

Geostik

Slovenia weather network

Oprema, ki se uporablja:

Vremenski program
Cumulus

Vremenski server
Asus

Cumulus

Asus